sensor_id;sensor_type;location;lat;lon;timestamp;pressure;altitude;pressure_sealevel;temperature;humidity
80585;BME280;70137;56.482;9.154;2024-03-02T00:00:06;100613.88;;;4.57;100.00
80585;BME280;70137;56.482;9.154;2024-03-02T00:02:45;100605.38;;;4.56;100.00
80585;BME280;70137;56.482;9.154;2024-03-02T00:05:18;100609.56;;;4.57;100.00
80585;BME280;70137;56.482;9.154;2024-03-02T00:07:46;100608.75;;;4.57;100.00
80585;BME280;70137;56.482;9.154;2024-03-02T00:10:16;100606.19;;;4.57;100.00
80585;BME280;70137;56.482;9.154;2024-03-02T00:12:47;100608.75;;;4.57;100.00
80585;BME280;70137;56.482;9.154;2024-03-02T00:18:11;100611.19;;;4.58;100.00
80585;BME280;70137;56.482;9.154;2024-03-02T00:20:40;100606.88;;;4.59;100.00
80585;BME280;70137;56.482;9.154;2024-03-02T00:23:08;100608.47;;;4.60;100.00
80585;BME280;70137;56.482;9.154;2024-03-02T00:25:39;100609.16;;;4.62;100.00
80585;BME280;70137;56.482;9.154;2024-03-02T00:28:17;100604.84;;;4.63;100.00
80585;BME280;70137;56.482;9.154;2024-03-02T00:33:10;100604.75;;;4.64;100.00
80585;BME280;70137;56.482;9.154;2024-03-02T00:35:35;100608.94;;;4.65;100.00
80585;BME280;70137;56.482;9.154;2024-03-02T00:38:05;100602.84;;;4.66;100.00
80585;BME280;70137;56.482;9.154;2024-03-02T00:40:31;100608.78;;;4.67;100.00
80585;BME280;70137;56.482;9.154;2024-03-02T00:42:57;100599.34;;;4.67;100.00
80585;BME280;70137;56.482;9.154;2024-03-02T00:45:22;100601.78;;;4.69;100.00
80585;BME280;70137;56.482;9.154;2024-03-02T00:47:50;100606.78;;;4.70;100.00
80585;BME280;70137;56.482;9.154;2024-03-02T00:50:15;100607.59;;;4.71;100.00
80585;BME280;70137;56.482;9.154;2024-03-02T00:52:41;100610.84;;;4.73;100.00
80585;BME280;70137;56.482;9.154;2024-03-02T00:55:07;100610.72;;;4.74;100.00
80585;BME280;70137;56.482;9.154;2024-03-02T00:57:34;100609.66;;;4.77;100.00
80585;BME280;70137;56.482;9.154;2024-03-02T01:00:00;100608.72;;;4.78;100.00
80585;BME280;70137;56.482;9.154;2024-03-02T01:02:25;100612.09;;;4.78;100.00
80585;BME280;70137;56.482;9.154;2024-03-02T01:04:50;100602.50;;;4.80;100.00
80585;BME280;70137;56.482;9.154;2024-03-02T01:07:15;100604.13;;;4.81;100.00
80585;BME280;70137;56.482;9.154;2024-03-02T01:09:41;100601.56;;;4.81;100.00
80585;BME280;70137;56.482;9.154;2024-03-02T01:12:07;100599.78;;;4.82;100.00
80585;BME280;70137;56.482;9.154;2024-03-02T01:14:32;100596.41;;;4.81;100.00
80585;BME280;70137;56.482;9.154;2024-03-02T01:16:57;100600.75;;;4.81;100.00
80585;BME280;70137;56.482;9.154;2024-03-02T01:19:23;100603.16;;;4.82;100.00
80585;BME280;70137;56.482;9.154;2024-03-02T01:21:48;100597.94;;;4.84;100.00
80585;BME280;70137;56.482;9.154;2024-03-02T01:24:15;100602.00;;;4.86;100.00
80585;BME280;70137;56.482;9.154;2024-03-02T01:26:41;100606.19;;;4.87;100.00
80585;BME280;70137;56.482;9.154;2024-03-02T01:29:07;100599.28;;;4.88;100.00
80585;BME280;70137;56.482;9.154;2024-03-02T01:31:33;100591.59;;;4.88;100.00
80585;BME280;70137;56.482;9.154;2024-03-02T01:33:58;100595.91;;;4.87;100.00
80585;BME280;70137;56.482;9.154;2024-03-02T01:36:23;100593.34;;;4.87;100.00
80585;BME280;70137;56.482;9.154;2024-03-02T01:38:49;100591.59;;;4.88;100.00
80585;BME280;70137;56.482;9.154;2024-03-02T01:41:15;100586.44;;;4.88;100.00
80585;BME280;70137;56.482;9.154;2024-03-02T01:43:40;100586.44;;;4.88;100.00
80585;BME280;70137;56.482;9.154;2024-03-02T01:46:06;100587.25;;;4.88;100.00
80585;BME280;70137;56.482;9.154;2024-03-02T01:48:31;100583.06;;;4.87;100.00
80585;BME280;70137;56.482;9.154;2024-03-02T01:50:57;100586.44;;;4.88;100.00
80585;BME280;70137;56.482;9.154;2024-03-02T01:53:22;100582.25;;;4.87;100.00
80585;BME280;70137;56.482;9.154;2024-03-02T01:55:48;100575.34;;;4.87;100.00
80585;BME280;70137;56.482;9.154;2024-03-02T01:58:14;100573.59;;;4.88;100.00
80585;BME280;70137;56.482;9.154;2024-03-02T02:00:39;100571.84;;;4.88;100.00
80585;BME280;70137;56.482;9.154;2024-03-02T02:03:05;100572.66;;;4.89;100.00
80585;BME280;70137;56.482;9.154;2024-03-02T02:05:30;100569.13;;;4.90;100.00
80585;BME280;70137;56.482;9.154;2024-03-02T02:07:56;100564.56;;;4.94;100.00
80585;BME280;70137;56.482;9.154;2024-03-02T02:10:23;100571.34;;;4.95;100.00
80585;BME280;70137;56.482;9.154;2024-03-02T02:12:49;100560.94;;;4.96;100.00
80585;BME280;70137;56.482;9.154;2024-03-02T02:15:29;100557.41;;;4.97;100.00
80585;BME280;70137;56.482;9.154;2024-03-02T02:17:56;100554.03;;;4.97;100.00
80585;BME280;70137;56.482;9.154;2024-03-02T02:20:23;100546.31;;;4.97;100.00
80585;BME280;70137;56.482;9.154;2024-03-02T02:22:59;100539.56;;;4.96;100.00
80585;BME280;70137;56.482;9.154;2024-03-02T02:25:25;100532.81;;;4.95;100.00
80585;BME280;70137;56.482;9.154;2024-03-02T02:27:52;100530.22;;;4.95;100.00
80585;BME280;70137;56.482;9.154;2024-03-02T02:30:23;100527.66;;;4.95;100.00
80585;BME280;70137;56.482;9.154;2024-03-02T02:32:48;100528.63;;;4.94;100.00
80585;BME280;70137;56.482;9.154;2024-03-02T02:35:14;100528.63;;;4.94;100.00
80585;BME280;70137;56.482;9.154;2024-03-02T02:37:40;100531.84;;;4.96;100.00
80585;BME280;70137;56.482;9.154;2024-03-02T02:40:05;100528.34;;;4.97;100.00
80585;BME280;70137;56.482;9.154;2024-03-02T02:42:31;100523.19;;;4.97;100.00
80585;BME280;70137;56.482;9.154;2024-03-02T02:44:56;100517.94;;;4.98;100.00
80585;BME280;70137;56.482;9.154;2024-03-02T02:47:22;100519.69;;;4.98;100.00
80585;BME280;70137;56.482;9.154;2024-03-02T02:49:47;100514.56;;;4.98;100.00
80585;BME280;70137;56.482;9.154;2024-03-02T02:52:12;100514.56;;;4.98;100.00
80585;BME280;70137;56.482;9.154;2024-03-02T02:54:38;100511.03;;;4.99;100.00
80585;BME280;70137;56.482;9.154;2024-03-02T02:57:03;100502.38;;;5.00;100.00
80585;BME280;70137;56.482;9.154;2024-03-02T02:59:28;100501.44;;;5.01;100.00
80585;BME280;70137;56.482;9.154;2024-03-02T03:01:54;100508.09;;;5.03;100.00
80585;BME280;70137;56.482;9.154;2024-03-02T03:04:19;100502.94;;;5.03;100.00
80585;BME280;70137;56.482;9.154;2024-03-02T03:06:45;100497.66;;;5.05;100.00
80585;BME280;70137;56.482;9.154;2024-03-02T03:09:11;100496.72;;;5.06;100.00
80585;BME280;70137;56.482;9.154;2024-03-02T03:11:36;100495.63;;;5.08;100.00
80585;BME280;70137;56.482;9.154;2024-03-02T03:14:02;100494.53;;;5.11;100.00
80585;BME280;70137;56.482;9.154;2024-03-02T03:16:28;100495.34;;;5.11;100.00
80585;BME280;70137;56.482;9.154;2024-03-02T03:18:53;100490.09;;;5.13;100.00
80585;BME280;70137;56.482;9.154;2024-03-02T03:21:19;100486.03;;;5.10;100.00
80585;BME280;70137;56.482;9.154;2024-03-02T03:23:44;100482.66;;;5.10;100.00
80585;BME280;70137;56.482;9.154;2024-03-02T03:26:10;100485.22;;;5.10;100.00
80585;BME280;70137;56.482;9.154;2024-03-02T03:28:35;100476.56;;;5.11;100.00
80585;BME280;70137;56.482;9.154;2024-03-02T03:31:01;100481.69;;;5.11;100.00
80585;BME280;70137;56.482;9.154;2024-03-02T03:33:27;100474.00;;;5.11;100.00
80585;BME280;70137;56.482;9.154;2024-03-02T03:35:52;100480.06;;;5.10;100.00
80585;BME280;70137;56.482;9.154;2024-03-02T03:38:18;100477.50;;;5.10;100.00
80585;BME280;70137;56.482;9.154;2024-03-02T03:40:44;100479.13;;;5.11;100.00
80585;BME280;70137;56.482;9.154;2024-03-02T03:43:10;100483.59;;;5.09;100.00
80585;BME280;70137;56.482;9.154;2024-03-02T03:45:35;100487.66;;;5.11;100.00
80585;BME280;70137;56.482;9.154;2024-03-02T03:48:02;100483.47;;;5.10;100.00
80585;BME280;70137;56.482;9.154;2024-03-02T03:50:27;100482.66;;;5.10;100.00
80585;BME280;70137;56.482;9.154;2024-03-02T03:52:52;100475.75;;;5.10;100.00
80585;BME280;70137;56.482;9.154;2024-03-02T03:55:18;100481.84;;;5.09;100.00
80585;BME280;70137;56.482;9.154;2024-03-02T03:57:43;100469.94;;;5.08;100.00
80585;BME280;70137;56.482;9.154;2024-03-02T04:00:09;100457.22;;;5.07;100.00
80585;BME280;70137;56.482;9.154;2024-03-02T04:02:36;100457.38;;;5.05;100.00
80585;BME280;70137;56.482;9.154;2024-03-02T04:05:01;100465.88;;;5.06;100.00
80585;BME280;70137;56.482;9.154;2024-03-02T04:07:30;100469.28;;;5.06;100.00
80585;BME280;70137;56.482;9.154;2024-03-02T04:09:55;100468.47;;;5.06;100.00
80585;BME280;70137;56.482;9.154;2024-03-02T04:12:21;100458.19;;;5.06;100.00
80585;BME280;70137;56.482;9.154;2024-03-02T04:14:46;100456.56;;;5.05;100.00
80585;BME280;70137;56.482;9.154;2024-03-02T04:17:11;100456.41;;;5.06;100.00
80585;BME280;70137;56.482;9.154;2024-03-02T04:19:38;100457.22;;;5.07;100.00
80585;BME280;70137;56.482;9.154;2024-03-02T04:22:04;100465.59;;;5.09;100.00
80585;BME280;70137;56.482;9.154;2024-03-02T04:24:29;100460.47;;;5.09;100.00
80585;BME280;70137;56.482;9.154;2024-03-02T04:26:55;100463.03;;;5.09;100.00
80585;BME280;70137;56.482;9.154;2024-03-02T04:29:20;100469.66;;;5.11;100.00
80585;BME280;70137;56.482;9.154;2024-03-02T04:31:46;100473.06;;;5.12;100.00
80585;BME280;70137;56.482;9.154;2024-03-02T04:34:11;100467.78;;;5.13;100.00
80585;BME280;70137;56.482;9.154;2024-03-02T04:36:36;100465.09;;;5.15;100.00
80585;BME280;70137;56.482;9.154;2024-03-02T04:39:02;100476.72;;;5.19;100.00
80585;BME280;70137;56.482;9.154;2024-03-02T04:41:27;100481.59;;;5.22;100.00
80585;BME280;70137;56.482;9.154;2024-03-02T04:43:53;100481.47;;;5.24;100.00
80585;BME280;70137;56.482;9.154;2024-03-02T04:46:18;100482.13;;;5.26;100.00
80585;BME280;70137;56.482;9.154;2024-03-02T04:48:43;100472.66;;;5.26;100.00
80585;BME280;70137;56.482;9.154;2024-03-02T04:51:09;100484.56;;;5.27;100.00
80585;BME280;70137;56.482;9.154;2024-03-02T04:53:35;100478.59;;;5.27;100.00
80585;BME280;70137;56.482;9.154;2024-03-02T04:56:00;100479.41;;;5.27;100.00
80585;BME280;70137;56.482;9.154;2024-03-02T04:58:57;100488.59;;;5.30;100.00
80585;BME280;70137;56.482;9.154;2024-03-02T05:01:23;100488.59;;;5.30;100.00
80585;BME280;70137;56.482;9.154;2024-03-02T05:03:48;100479.13;;;5.30;100.00
80585;BME280;70137;56.482;9.154;2024-03-02T05:06:13;100485.22;;;5.29;100.00
80585;BME280;70137;56.482;9.154;2024-03-02T05:08:39;100482.56;;;5.31;100.00
80585;BME280;70137;56.482;9.154;2024-03-02T05:11:04;100478.88;;;5.33;100.00
80585;BME280;70137;56.482;9.154;2024-03-02T05:13:48;100480.78;;;5.31;100.00
80585;BME280;70137;56.482;9.154;2024-03-02T05:16:14;100475.66;;;5.31;100.00
80585;BME280;70137;56.482;9.154;2024-03-02T05:18:39;100474.00;;;5.30;100.00
80585;BME280;70137;56.482;9.154;2024-03-02T05:21:05;100480.91;;;5.30;100.00
80585;BME280;70137;56.482;9.154;2024-03-02T05:23:30;100485.22;;;5.29;100.00
80585;BME280;70137;56.482;9.154;2024-03-02T05:25:56;100493.75;;;5.30;100.00
80585;BME280;70137;56.482;9.154;2024-03-02T05:28:21;100492.00;;;5.30;100.00
80585;BME280;70137;56.482;9.154;2024-03-02T05:30:46;100488.59;;;5.30;100.00
80585;BME280;70137;56.482;9.154;2024-03-02T05:33:12;100489.41;;;5.30;100.00
80585;BME280;70137;56.482;9.154;2024-03-02T05:35:37;100487.81;;;5.29;100.00
80585;BME280;70137;56.482;9.154;2024-03-02T05:38:03;100486.84;;;5.30;100.00
80585;BME280;70137;56.482;9.154;2024-03-02T05:40:28;100489.41;;;5.30;100.00
80585;BME280;70137;56.482;9.154;2024-03-02T05:42:54;100493.75;;;5.30;100.00
80585;BME280;70137;56.482;9.154;2024-03-02T05:45:19;100492.94;;;5.29;100.00
80585;BME280;70137;56.482;9.154;2024-03-02T05:47:44;100494.56;;;5.30;100.00
80585;BME280;70137;56.482;9.154;2024-03-02T05:50:10;100490.38;;;5.29;100.00
80585;BME280;70137;56.482;9.154;2024-03-02T05:52:35;100495.50;;;5.29;100.00
80585;BME280;70137;56.482;9.154;2024-03-02T05:55:00;100498.09;;;5.29;100.00
80585;BME280;70137;56.482;9.154;2024-03-02T05:57:26;100497.28;;;5.29;100.00
80585;BME280;70137;56.482;9.154;2024-03-02T06:00:10;100498.09;;;5.29;100.00
80585;BME280;70137;56.482;9.154;2024-03-02T06:02:39;100503.13;;;5.31;100.00
80585;BME280;70137;56.482;9.154;2024-03-02T06:05:05;100503.78;;;5.33;100.00
80585;BME280;70137;56.482;9.154;2024-03-02T06:07:32;100503.78;;;5.33;100.00
80585;BME280;70137;56.482;9.154;2024-03-02T06:09:57;100508.13;;;5.32;100.00
80585;BME280;70137;56.482;9.154;2024-03-02T06:12:23;100504.59;;;5.33;100.00
80585;BME280;70137;56.482;9.154;2024-03-02T06:14:49;100505.41;;;5.34;100.00
80585;BME280;70137;56.482;9.154;2024-03-02T06:17:14;100502.97;;;5.32;100.00
80585;BME280;70137;56.482;9.154;2024-03-02T06:19:39;100509.72;;;5.33;100.00
80585;BME280;70137;56.482;9.154;2024-03-02T06:22:05;100506.34;;;5.33;100.00
80585;BME280;70137;56.482;9.154;2024-03-02T06:24:31;100514.88;;;5.33;100.00
80585;BME280;70137;56.482;9.154;2024-03-02T06:26:56;100513.13;;;5.34;100.00
80585;BME280;70137;56.482;9.154;2024-03-02T06:29:21;100515.53;;;5.35;100.00
80585;BME280;70137;56.482;9.154;2024-03-02T06:31:47;100518.13;;;5.35;100.00
80585;BME280;70137;56.482;9.154;2024-03-02T06:34:12;100522.31;;;5.36;100.00
80585;BME280;70137;56.482;9.154;2024-03-02T06:36:38;100522.03;;;5.39;100.00
80585;BME280;70137;56.482;9.154;2024-03-02T06:39:05;100528.94;;;5.39;100.00
80585;BME280;70137;56.482;9.154;2024-03-02T06:41:30;100528.13;;;5.38;100.00
80585;BME280;70137;56.482;9.154;2024-03-02T06:43:56;100520.53;;;5.37;100.00
80585;BME280;70137;56.482;9.154;2024-03-02T06:46:25;100521.09;;;5.40;100.00
80585;BME280;70137;56.482;9.154;2024-03-02T06:48:50;100521.91;;;5.41;100.00
80585;BME280;70137;56.482;9.154;2024-03-02T06:51:16;100530.44;;;5.41;100.00
80585;BME280;70137;56.482;9.154;2024-03-02T06:53:41;100519.22;;;5.42;100.00
80585;BME280;70137;56.482;9.154;2024-03-02T06:56:07;100517.59;;;5.41;100.00
80585;BME280;70137;56.482;9.154;2024-03-02T06:58:34;100522.59;;;5.43;100.00
80585;BME280;70137;56.482;9.154;2024-03-02T07:00:59;100532.72;;;5.44;100.00
80585;BME280;70137;56.482;9.154;2024-03-02T07:03:27;100533.53;;;5.45;100.00
80585;BME280;70137;56.482;9.154;2024-03-02T07:05:53;100537.72;;;5.46;100.00
80585;BME280;70137;56.482;9.154;2024-03-02T07:08:19;100542.75;;;5.47;100.00
80585;BME280;70137;56.482;9.154;2024-03-02T07:10:44;100533.25;;;5.48;100.00
80585;BME280;70137;56.482;9.154;2024-03-02T07:13:09;100535.69;;;5.50;100.00
80585;BME280;70137;56.482;9.154;2024-03-02T07:15:35;100539.09;;;5.50;100.00
80585;BME280;70137;56.482;9.154;2024-03-02T07:18:03;100525.56;;;5.48;100.00
80585;BME280;70137;56.482;9.154;2024-03-02T07:20:29;100532.31;;;5.49;100.00
80585;BME280;70137;56.482;9.154;2024-03-02T07:22:54;100525.69;;;5.46;100.00
80585;BME280;70137;56.482;9.154;2024-03-02T07:25:20;100525.41;;;5.50;100.00
80585;BME280;70137;56.482;9.154;2024-03-02T07:27:45;100529.75;;;5.49;100.00
80585;BME280;70137;56.482;9.154;2024-03-02T07:30:14;100529.75;;;5.49;100.00
80585;BME280;70137;56.482;9.154;2024-03-02T07:32:41;100532.22;;;5.51;100.00
80585;BME280;70137;56.482;9.154;2024-03-02T07:35:11;100533.81;;;5.52;100.00
80585;BME280;70137;56.482;9.154;2024-03-02T07:37:37;100538.03;;;5.53;100.00
80585;BME280;70137;56.482;9.154;2024-03-02T07:40:02;100539.78;;;5.52;100.00
80585;BME280;70137;56.482;9.154;2024-03-02T07:42:28;100542.22;;;5.54;100.00
80585;BME280;70137;56.482;9.154;2024-03-02T07:44:54;100540.31;;;5.56;100.00
80585;BME280;70137;56.482;9.154;2024-03-02T07:47:19;100539.34;;;5.57;100.00
80585;BME280;70137;56.482;9.154;2024-03-02T07:49:45;100537.47;;;5.59;100.00
80585;BME280;70137;56.482;9.154;2024-03-02T07:52:11;100540.84;;;5.59;100.00
80585;BME280;70137;56.482;9.154;2024-03-02T07:54:36;100540.72;;;5.61;100.00
80585;BME280;70137;56.482;9.154;2024-03-02T07:57:02;100546.53;;;5.63;100.00
80585;BME280;70137;56.482;9.154;2024-03-02T07:59:27;100553.97;;;5.66;100.00
80585;BME280;70137;56.482;9.154;2024-03-02T08:01:53;100543.69;;;5.66;100.00
80585;BME280;70137;56.482;9.154;2024-03-02T08:04:20;100540.97;;;5.67;100.00
80585;BME280;70137;56.482;9.154;2024-03-02T08:06:46;100535.84;;;5.67;100.00
80585;BME280;70137;56.482;9.154;2024-03-02T08:09:12;100528.94;;;5.68;100.00
80585;BME280;70137;56.482;9.154;2024-03-02T08:11:37;100522.16;;;5.67;100.00
80585;BME280;70137;56.482;9.154;2024-03-02T08:14:03;100532.19;;;5.70;100.00
80585;BME280;70137;56.482;9.154;2024-03-02T08:16:29;100531.91;;;5.73;100.00
80585;BME280;70137;56.482;9.154;2024-03-02T08:18:54;100535.44;;;5.72;100.00
80585;BME280;70137;56.482;9.154;2024-03-02T08:21:22;100538.69;;;5.74;100.00
80585;BME280;70137;56.482;9.154;2024-03-02T08:23:48;100542.88;;;5.75;100.00
80585;BME280;70137;56.482;9.154;2024-03-02T08:26:13;100543.81;;;5.74;100.00
80585;BME280;70137;56.482;9.154;2024-03-02T08:28:39;100547.34;;;5.73;100.00
80585;BME280;70137;56.482;9.154;2024-03-02T08:31:06;100542.50;;;5.70;100.00
80585;BME280;70137;56.482;9.154;2024-03-02T08:33:32;100550.19;;;5.70;100.00
80585;BME280;70137;56.482;9.154;2024-03-02T08:35:58;100556.03;;;5.72;100.00
80585;BME280;70137;56.482;9.154;2024-03-02T08:38:23;100558.31;;;5.75;100.00
80585;BME280;70137;56.482;9.154;2024-03-02T08:40:49;100551.25;;;5.77;100.00
80585;BME280;70137;56.482;9.154;2024-03-02T08:43:15;100553.84;;;5.77;100.00
80585;BME280;70137;56.482;9.154;2024-03-02T08:45:41;100564.13;;;5.77;100.00
80585;BME280;70137;56.482;9.154;2024-03-02T08:48:10;100561.31;;;5.80;100.00
80585;BME280;70137;56.482;9.154;2024-03-02T08:50:36;100560.34;;;5.81;100.00
80585;BME280;70137;56.482;9.154;2024-03-02T08:53:03;100565.34;;;5.83;100.00
80585;BME280;70137;56.482;9.154;2024-03-02T08:55:30;100557.63;;;5.83;100.00
80585;BME280;70137;56.482;9.154;2024-03-02T08:57:55;100559.13;;;5.85;100.00
80585;BME280;70137;56.482;9.154;2024-03-02T09:00:21;100563.31;;;5.86;100.00
80585;BME280;70137;56.482;9.154;2024-03-02T09:02:47;100576.84;;;5.88;100.00
80585;BME280;70137;56.482;9.154;2024-03-02T09:05:13;100566.44;;;5.90;100.00
80585;BME280;70137;56.482;9.154;2024-03-02T09:07:38;100557.66;;;5.92;100.00
80585;BME280;70137;56.482;9.154;2024-03-02T09:10:05;100567.94;;;5.92;100.00
80585;BME280;70137;56.482;9.154;2024-03-02T09:12:31;100565.22;;;5.94;100.00
80585;BME280;70137;56.482;9.154;2024-03-02T09:14:57;100556.56;;;5.95;100.00
80585;BME280;70137;56.482;9.154;2024-03-02T09:17:23;100556.69;;;5.93;100.00
80585;BME280;70137;56.482;9.154;2024-03-02T09:19:48;100547.38;;;5.92;100.00
80585;BME280;70137;56.482;9.154;2024-03-02T09:22:14;100538.69;;;5.93;100.00
80585;BME280;70137;56.482;9.154;2024-03-02T09:24:39;100522.31;;;5.94;100.00
80585;BME280;70137;56.482;9.154;2024-03-02T09:27:04;100510.09;;;5.96;100.00
80585;BME280;70137;56.482;9.154;2024-03-02T09:29:30;100480.84;;;5.97;100.00
80585;BME280;70137;56.482;9.154;2024-03-02T09:31:56;100487.06;;;6.05;100.00
80585;BME280;70137;56.482;9.154;2024-03-02T09:34:21;100502.50;;;6.05;100.00
80585;BME280;70137;56.482;9.154;2024-03-02T09:36:47;100515.50;;;6.13;100.00
80585;BME280;70137;56.482;9.154;2024-03-02T09:39:13;100518.59;;;6.16;100.00
80585;BME280;70137;56.482;9.154;2024-03-02T09:41:38;100513.19;;;6.19;100.00
80585;BME280;70137;56.482;9.154;2024-03-02T09:44:05;100520.47;;;6.24;100.00
80585;BME280;70137;56.482;9.154;2024-03-02T09:46:30;100521.84;;;6.28;100.00
80585;BME280;70137;56.482;9.154;2024-03-02T09:48:56;100525.59;;;6.34;100.00
80585;BME280;70137;56.482;9.154;2024-03-02T09:51:22;100530.19;;;6.40;100.00
80585;BME280;70137;56.482;9.154;2024-03-02T09:53:48;100532.19;;;6.46;100.00
80585;BME280;70137;56.482;9.154;2024-03-02T09:56:14;100541.94;;;6.52;100.00
80585;BME280;70137;56.482;9.154;2024-03-02T09:58:41;100546.38;;;6.59;100.00
80585;BME280;70137;56.482;9.154;2024-03-02T10:01:07;100554.63;;;6.63;100.00
80585;BME280;70137;56.482;9.154;2024-03-02T10:03:33;100558.81;;;6.64;100.00
80585;BME280;70137;56.482;9.154;2024-03-02T10:06:27;100568.97;;;6.66;100.00
80585;BME280;70137;56.482;9.154;2024-03-02T10:08:54;100572.91;;;6.70;100.00
80585;BME280;70137;56.482;9.154;2024-03-02T10:11:34;100576.16;;;6.72;100.00
80585;BME280;70137;56.482;9.154;2024-03-02T10:14:12;100579.38;;;6.74;100.00
80585;BME280;70137;56.482;9.154;2024-03-02T10:16:42;100572.63;;;6.73;100.00
80585;BME280;70137;56.482;9.154;2024-03-02T10:19:28;100573.00;;;6.78;100.00
80585;BME280;70137;56.482;9.154;2024-03-02T10:21:58;100570.28;;;6.79;100.00
80585;BME280;70137;56.482;9.154;2024-03-02T10:24:24;100568.53;;;6.80;100.00
80585;BME280;70137;56.482;9.154;2024-03-02T10:26:51;100581.09;;;6.83;100.00
80585;BME280;70137;56.482;9.154;2024-03-02T10:29:16;100576.63;;;6.85;100.00
80585;BME280;70137;56.482;9.154;2024-03-02T10:31:43;100573.78;;;6.88;100.00
80585;BME280;70137;56.482;9.154;2024-03-02T10:34:10;100572.53;;;6.92;100.00
80585;BME280;70137;56.482;9.154;2024-03-02T10:36:37;100574.63;;;7.06;100.00
80585;BME280;70137;56.482;9.154;2024-03-02T10:39:04;100576.72;;;7.21;100.00
80585;BME280;70137;56.482;9.154;2024-03-02T10:41:33;100576.66;;;7.30;100.00
80585;BME280;70137;56.482;9.154;2024-03-02T10:43:59;100573.91;;;7.32;100.00
80585;BME280;70137;56.482;9.154;2024-03-02T10:46:30;100589.13;;;7.35;100.00
80585;BME280;70137;56.482;9.154;2024-03-02T10:49:00;100592.94;;;7.31;100.00
80585;BME280;70137;56.482;9.154;2024-03-02T10:51:29;100602.03;;;7.35;100.00
80585;BME280;70137;56.482;9.154;2024-03-02T10:54:00;100600.91;;;7.37;100.00
80585;BME280;70137;56.482;9.154;2024-03-02T10:56:40;100600.75;;;7.39;100.00
80585;BME280;70137;56.482;9.154;2024-03-02T11:01:42;100595.28;;;7.42;100.00
80585;BME280;70137;56.482;9.154;2024-03-02T11:04:08;100591.50;;;7.46;100.00
80585;BME280;70137;56.482;9.154;2024-03-02T11:06:35;100586.69;;;7.51;100.00
80585;BME280;70137;56.482;9.154;2024-03-02T11:09:07;100590.59;;;7.55;100.00
80585;BME280;70137;56.482;9.154;2024-03-02T11:11:38;100583.84;;;7.54;100.00
80585;BME280;70137;56.482;9.154;2024-03-02T11:14:07;100589.25;;;7.51;100.00
80585;BME280;70137;56.482;9.154;2024-03-02T11:16:38;100603.78;;;7.52;100.00
80585;BME280;70137;56.482;9.154;2024-03-02T11:19:06;100601.19;;;7.52;100.00
80585;BME280;70137;56.482;9.154;2024-03-02T11:21:34;100595.13;;;7.53;100.00
80585;BME280;70137;56.482;9.154;2024-03-02T11:24:00;100601.88;;;7.54;100.00
80585;BME280;70137;56.482;9.154;2024-03-02T11:26:27;100592.72;;;7.60;100.00
80585;BME280;70137;56.482;9.154;2024-03-02T11:28:53;100600.63;;;7.58;100.00
80585;BME280;70137;56.482;9.154;2024-03-02T11:31:21;100594.97;;;7.55;100.00
80585;BME280;70137;56.482;9.154;2024-03-02T11:33:46;100592.22;;;7.56;100.00
80585;BME280;70137;56.482;9.154;2024-03-02T11:36:11;100593.19;;;7.55;100.00
80585;BME280;70137;56.482;9.154;2024-03-02T11:38:37;100600.94;;;7.55;100.00
80585;BME280;70137;56.482;9.154;2024-03-02T11:41:06;100602.84;;;7.53;100.00
80585;BME280;70137;56.482;9.154;2024-03-02T11:43:38;100604.75;;;7.51;100.00
80585;BME280;70137;56.482;9.154;2024-03-02T11:46:05;100602.31;;;7.50;100.00
80585;BME280;70137;56.482;9.154;2024-03-02T11:48:32;100610.84;;;7.50;100.00
80585;BME280;70137;56.482;9.154;2024-03-02T11:51:00;100606.81;;;7.47;100.00
80585;BME280;70137;56.482;9.154;2024-03-02T11:53:27;100609.53;;;7.46;100.00
80585;BME280;70137;56.482;9.154;2024-03-02T11:55:57;100602.06;;;7.43;100.00
80585;BME280;70137;56.482;9.154;2024-03-02T11:58:23;100607.22;;;7.43;100.00
80585;BME280;70137;56.482;9.154;2024-03-02T12:00:53;100594.34;;;7.43;100.00
80585;BME280;70137;56.482;9.154;2024-03-02T12:03:21;100604.38;;;7.46;100.00
80585;BME280;70137;56.482;9.154;2024-03-02T12:05:53;100598.25;;;7.47;100.00
80585;BME280;70137;56.482;9.154;2024-03-02T12:08:19;100593.47;;;7.52;100.00
80585;BME280;70137;56.482;9.154;2024-03-02T12:10:56;100604.16;;;7.57;100.00
80585;BME280;70137;56.482;9.154;2024-03-02T12:13:21;100601.28;;;7.60;100.00
80585;BME280;70137;56.482;9.154;2024-03-02T12:15:47;100594.34;;;7.61;100.00
80585;BME280;70137;56.482;9.154;2024-03-02T12:18:13;100592.59;;;7.61;100.00
80585;BME280;70137;56.482;9.154;2024-03-02T12:20:38;100596.66;;;7.64;100.00
80585;BME280;70137;56.482;9.154;2024-03-02T12:23:04;100595.69;;;7.65;100.00
80585;BME280;70137;56.482;9.154;2024-03-02T12:25:31;100606.22;;;7.71;100.00
80585;BME280;70137;56.482;9.154;2024-03-02T12:28:00;100603.50;;;7.73;100.00
80585;BME280;70137;56.482;9.154;2024-03-02T12:30:30;100603.06;;;7.78;100.00
80585;BME280;70137;56.482;9.154;2024-03-02T12:32:56;100607.25;;;7.79;100.00
80585;BME280;70137;56.482;9.154;2024-03-02T12:35:21;100614.03;;;7.80;100.00
80585;BME280;70137;56.482;9.154;2024-03-02T12:37:51;100604.84;;;7.77;100.00
80585;BME280;70137;56.482;9.154;2024-03-02T12:40:19;100617.06;;;7.75;100.00
80585;BME280;70137;56.482;9.154;2024-03-02T12:42:48;100614.84;;;7.80;100.00
80585;BME280;70137;56.482;9.154;2024-03-02T12:45:14;100615.38;;;7.84;100.00
80585;BME280;70137;56.482;9.154;2024-03-02T12:47:41;100611.84;;;7.85;100.00
80585;BME280;70137;56.482;9.154;2024-03-02T12:50:07;100607.19;;;7.88;100.00
80585;BME280;70137;56.482;9.154;2024-03-02T12:52:33;100613.53;;;7.94;100.00
80585;BME280;70137;56.482;9.154;2024-03-02T12:55:04;100607.41;;;7.95;100.00